sensor_id;sensor_type;location;lat;lon;timestamp;P1;durP1;ratioP1;P2;durP2;ratioP2
58470;SDS011;44258;51.288;12.068;2022-07-21T00:00:04;10.05;;;4.70;;
58470;SDS011;44258;51.288;12.068;2022-07-21T00:02:33;10.38;;;5.57;;
58470;SDS011;44258;51.288;12.068;2022-07-21T00:05:02;12.15;;;5.93;;
58470;SDS011;44258;51.288;12.068;2022-07-21T00:07:29;16.10;;;8.20;;
58470;SDS011;44258;51.288;12.068;2022-07-21T00:09:56;15.30;;;7.93;;
58470;SDS011;44258;51.288;12.068;2022-07-21T00:12:23;20.30;;;8.68;;
58470;SDS011;44258;51.288;12.068;2022-07-21T00:14:50;15.32;;;7.35;;
58470;SDS011;44258;51.288;12.068;2022-07-21T00:17:17;14.68;;;7.13;;
58470;SDS011;44258;51.288;12.068;2022-07-21T00:19:44;12.57;;;6.85;;
58470;SDS011;44258;51.288;12.068;2022-07-21T00:22:10;15.85;;;6.75;;
58470;SDS011;44258;51.288;12.068;2022-07-21T00:24:37;14.70;;;6.55;;
58470;SDS011;44258;51.288;12.068;2022-07-21T00:27:04;13.05;;;6.65;;
58470;SDS011;44258;51.288;12.068;2022-07-21T00:29:31;14.95;;;5.90;;
58470;SDS011;44258;51.288;12.068;2022-07-21T00:31:57;13.57;;;6.45;;
58470;SDS011;44258;51.288;12.068;2022-07-21T00:34:26;15.20;;;6.40;;
58470;SDS011;44258;51.288;12.068;2022-07-21T00:36:53;13.57;;;6.22;;
58470;SDS011;44258;51.288;12.068;2022-07-21T00:39:20;11.43;;;6.40;;
58470;SDS011;44258;51.288;12.068;2022-07-21T00:41:47;11.68;;;5.85;;
58470;SDS011;44258;51.288;12.068;2022-07-21T00:44:20;12.73;;;5.82;;
58470;SDS011;44258;51.288;12.068;2022-07-21T00:46:47;9.82;;;5.15;;
58470;SDS011;44258;51.288;12.068;2022-07-21T00:49:13;14.32;;;6.03;;
58470;SDS011;44258;51.288;12.068;2022-07-21T00:51:41;11.45;;;5.85;;
58470;SDS011;44258;51.288;12.068;2022-07-21T00:54:08;11.30;;;5.93;;
58470;SDS011;44258;51.288;12.068;2022-07-21T00:56:35;13.35;;;5.78;;
58470;SDS011;44258;51.288;12.068;2022-07-21T00:59:02;11.27;;;5.60;;
58470;SDS011;44258;51.288;12.068;2022-07-21T01:01:29;13.90;;;5.97;;
58470;SDS011;44258;51.288;12.068;2022-07-21T01:03:56;12.20;;;5.63;;
58470;SDS011;44258;51.288;12.068;2022-07-21T01:06:23;12.45;;;5.00;;
58470;SDS011;44258;51.288;12.068;2022-07-21T01:08:52;11.55;;;6.20;;
58470;SDS011;44258;51.288;12.068;2022-07-21T01:11:19;12.35;;;5.20;;
58470;SDS011;44258;51.288;12.068;2022-07-21T01:13:47;11.48;;;5.72;;
58470;SDS011;44258;51.288;12.068;2022-07-21T01:16:15;12.00;;;5.22;;
58470;SDS011;44258;51.288;12.068;2022-07-21T01:18:42;13.02;;;5.53;;
58470;SDS011;44258;51.288;12.068;2022-07-21T01:21:18;12.95;;;5.78;;
58470;SDS011;44258;51.288;12.068;2022-07-21T01:23:55;13.20;;;6.77;;
58470;SDS011;44258;51.288;12.068;2022-07-21T01:26:22;11.68;;;5.60;;
58470;SDS011;44258;51.288;12.068;2022-07-21T01:28:49;11.18;;;5.72;;
58470;SDS011;44258;51.288;12.068;2022-07-21T01:31:16;12.63;;;6.18;;
58470;SDS011;44258;51.288;12.068;2022-07-21T01:33:42;10.07;;;5.47;;
58470;SDS011;44258;51.288;12.068;2022-07-21T01:36:09;10.40;;;5.10;;
58470;SDS011;44258;51.288;12.068;2022-07-21T01:38:37;12.13;;;5.68;;
58470;SDS011;44258;51.288;12.068;2022-07-21T01:41:21;11.27;;;5.93;;
58470;SDS011;44258;51.288;12.068;2022-07-21T01:43:59;10.20;;;5.40;;
58470;SDS011;44258;51.288;12.068;2022-07-21T01:46:27;13.15;;;6.43;;
58470;SDS011;44258;51.288;12.068;2022-07-21T01:48:55;11.90;;;6.07;;
58470;SDS011;44258;51.288;12.068;2022-07-21T01:51:22;9.90;;;5.47;;
58470;SDS011;44258;51.288;12.068;2022-07-21T01:53:50;11.77;;;5.90;;
58470;SDS011;44258;51.288;12.068;2022-07-21T01:56:18;10.38;;;5.15;;
58470;SDS011;44258;51.288;12.068;2022-07-21T01:58:47;10.70;;;5.13;;
58470;SDS011;44258;51.288;12.068;2022-07-21T02:01:14;12.23;;;5.45;;
58470;SDS011;44258;51.288;12.068;2022-07-21T02:03:41;11.38;;;5.53;;
58470;SDS011;44258;51.288;12.068;2022-07-21T02:06:08;9.80;;;4.90;;
58470;SDS011;44258;51.288;12.068;2022-07-21T02:08:35;11.18;;;5.45;;
58470;SDS011;44258;51.288;12.068;2022-07-21T02:11:03;9.57;;;5.13;;
58470;SDS011;44258;51.288;12.068;2022-07-21T02:13:31;13.73;;;5.43;;
58470;SDS011;44258;51.288;12.068;2022-07-21T02:15:58;11.00;;;4.97;;
58470;SDS011;44258;51.288;12.068;2022-07-21T02:18:24;8.68;;;4.93;;
58470;SDS011;44258;51.288;12.068;2022-07-21T02:20:51;10.13;;;5.13;;
58470;SDS011;44258;51.288;12.068;2022-07-21T02:23:18;10.13;;;4.85;;
58470;SDS011;44258;51.288;12.068;2022-07-21T02:25:45;9.68;;;4.20;;
58470;SDS011;44258;51.288;12.068;2022-07-21T02:28:13;12.07;;;4.55;;
58470;SDS011;44258;51.288;12.068;2022-07-21T02:30:40;9.93;;;4.60;;
58470;SDS011;44258;51.288;12.068;2022-07-21T02:33:06;10.18;;;5.40;;
58470;SDS011;44258;51.288;12.068;2022-07-21T02:35:33;8.98;;;4.72;;
58470;SDS011;44258;51.288;12.068;2022-07-21T02:38:00;10.27;;;4.80;;
58470;SDS011;44258;51.288;12.068;2022-07-21T02:40:27;9.05;;;4.20;;
58470;SDS011;44258;51.288;12.068;2022-07-21T02:42:53;11.10;;;4.75;;
58470;SDS011;44258;51.288;12.068;2022-07-21T02:45:21;9.45;;;3.92;;
58470;SDS011;44258;51.288;12.068;2022-07-21T02:47:49;9.90;;;4.40;;
58470;SDS011;44258;51.288;12.068;2022-07-21T02:50:17;8.52;;;3.97;;
58470;SDS011;44258;51.288;12.068;2022-07-21T02:52:44;9.13;;;4.22;;
58470;SDS011;44258;51.288;12.068;2022-07-21T02:55:11;8.68;;;4.50;;
58470;SDS011;44258;51.288;12.068;2022-07-21T02:57:38;9.50;;;4.78;;
58470;SDS011;44258;51.288;12.068;2022-07-21T03:00:05;9.80;;;4.32;;
58470;SDS011;44258;51.288;12.068;2022-07-21T03:02:36;10.02;;;4.40;;
58470;SDS011;44258;51.288;12.068;2022-07-21T03:05:03;8.52;;;4.20;;
58470;SDS011;44258;51.288;12.068;2022-07-21T03:07:31;8.38;;;3.92;;
58470;SDS011;44258;51.288;12.068;2022-07-21T03:09:57;10.30;;;4.15;;
58470;SDS011;44258;51.288;12.068;2022-07-21T03:12:24;8.50;;;4.20;;
58470;SDS011;44258;51.288;12.068;2022-07-21T03:14:51;7.15;;;3.90;;
58470;SDS011;44258;51.288;12.068;2022-07-21T03:17:18;6.85;;;3.83;;
58470;SDS011;44258;51.288;12.068;2022-07-21T03:19:45;7.55;;;3.90;;
58470;SDS011;44258;51.288;12.068;2022-07-21T03:22:12;6.63;;;3.22;;
58470;SDS011;44258;51.288;12.068;2022-07-21T03:24:39;8.00;;;3.38;;
58470;SDS011;44258;51.288;12.068;2022-07-21T03:27:05;8.52;;;3.67;;
58470;SDS011;44258;51.288;12.068;2022-07-21T03:29:32;7.30;;;3.22;;
58470;SDS011;44258;51.288;12.068;2022-07-21T03:31:58;7.93;;;3.50;;
58470;SDS011;44258;51.288;12.068;2022-07-21T03:34:25;8.27;;;3.40;;
58470;SDS011;44258;51.288;12.068;2022-07-21T03:36:53;8.05;;;3.58;;
58470;SDS011;44258;51.288;12.068;2022-07-21T03:39:20;7.50;;;3.25;;
58470;SDS011;44258;51.288;12.068;2022-07-21T03:41:46;8.15;;;3.40;;
58470;SDS011;44258;51.288;12.068;2022-07-21T03:44:13;5.95;;;3.00;;
58470;SDS011;44258;51.288;12.068;2022-07-21T03:46:39;7.75;;;3.45;;
58470;SDS011;44258;51.288;12.068;2022-07-21T03:49:07;7.00;;;3.08;;
58470;SDS011;44258;51.288;12.068;2022-07-21T03:51:33;6.15;;;2.95;;
58470;SDS011;44258;51.288;12.068;2022-07-21T03:54:01;6.50;;;3.20;;
58470;SDS011;44258;51.288;12.068;2022-07-21T03:56:28;7.85;;;3.22;;
58470;SDS011;44258;51.288;12.068;2022-07-21T03:58:55;6.07;;;2.95;;
58470;SDS011;44258;51.288;12.068;2022-07-21T04:01:21;6.15;;;2.75;;
58470;SDS011;44258;51.288;12.068;2022-07-21T04:03:48;6.45;;;3.10;;
58470;SDS011;44258;51.288;12.068;2022-07-21T04:06:15;6.25;;;3.10;;
58470;SDS011;44258;51.288;12.068;2022-07-21T04:08:41;6.72;;;2.92;;
58470;SDS011;44258;51.288;12.068;2022-07-21T04:11:09;6.22;;;3.00;;
58470;SDS011;44258;51.288;12.068;2022-07-21T04:13:35;7.82;;;3.20;;
58470;SDS011;44258;51.288;12.068;2022-07-21T04:16:02;7.60;;;3.00;;
58470;SDS011;44258;51.288;12.068;2022-07-21T04:18:29;8.05;;;3.08;;
58470;SDS011;44258;51.288;12.068;2022-07-21T04:20:55;11.63;;;3.47;;
58470;SDS011;44258;51.288;12.068;2022-07-21T04:23:22;10.73;;;3.40;;
58470;SDS011;44258;51.288;12.068;2022-07-21T04:25:49;6.57;;;3.00;;
58470;SDS011;44258;51.288;12.068;2022-07-21T04:28:17;7.93;;;3.28;;
58470;SDS011;44258;51.288;12.068;2022-07-21T04:30:43;7.80;;;3.00;;
58470;SDS011;44258;51.288;12.068;2022-07-21T04:33:10;7.90;;;3.58;;
58470;SDS011;44258;51.288;12.068;2022-07-21T04:35:39;6.97;;;2.95;;
58470;SDS011;44258;51.288;12.068;2022-07-21T04:38:08;7.05;;;3.05;;
58470;SDS011;44258;51.288;12.068;2022-07-21T04:40:35;6.70;;;2.90;;
58470;SDS011;44258;51.288;12.068;2022-07-21T04:43:03;6.78;;;3.05;;
58470;SDS011;44258;51.288;12.068;2022-07-21T04:45:31;7.35;;;2.90;;
58470;SDS011;44258;51.288;12.068;2022-07-21T04:47:58;6.72;;;3.10;;
58470;SDS011;44258;51.288;12.068;2022-07-21T04:50:25;7.65;;;2.78;;
58470;SDS011;44258;51.288;12.068;2022-07-21T04:52:53;5.85;;;2.70;;
58470;SDS011;44258;51.288;12.068;2022-07-21T04:55:20;5.22;;;2.53;;
58470;SDS011;44258;51.288;12.068;2022-07-21T04:57:47;7.40;;;2.88;;
58470;SDS011;44258;51.288;12.068;2022-07-21T05:00:16;6.93;;;2.95;;
58470;SDS011;44258;51.288;12.068;2022-07-21T05:02:46;6.65;;;3.03;;
58470;SDS011;44258;51.288;12.068;2022-07-21T05:05:13;9.15;;;3.28;;
58470;SDS011;44258;51.288;12.068;2022-07-21T05:07:40;7.85;;;3.38;;
58470;SDS011;44258;51.288;12.068;2022-07-21T05:10:08;7.80;;;3.13;;
58470;SDS011;44258;51.288;12.068;2022-07-21T05:12:36;9.63;;;3.25;;
58470;SDS011;44258;51.288;12.068;2022-07-21T05:15:04;6.20;;;2.92;;
58470;SDS011;44258;51.288;12.068;2022-07-21T05:17:31;6.95;;;3.10;;
58470;SDS011;44258;51.288;12.068;2022-07-21T05:20:01;5.70;;;2.95;;
58470;SDS011;44258;51.288;12.068;2022-07-21T05:22:28;7.78;;;2.85;;
58470;SDS011;44258;51.288;12.068;2022-07-21T05:24:55;7.93;;;2.90;;
58470;SDS011;44258;51.288;12.068;2022-07-21T05:27:21;6.32;;;3.05;;
58470;SDS011;44258;51.288;12.068;2022-07-21T05:29:48;5.35;;;2.67;;
58470;SDS011;44258;51.288;12.068;2022-07-21T05:32:15;7.10;;;3.08;;
58470;SDS011;44258;51.288;12.068;2022-07-21T05:34:41;6.63;;;3.22;;
58470;SDS011;44258;51.288;12.068;2022-07-21T05:37:10;7.43;;;2.97;;
58470;SDS011;44258;51.288;12.068;2022-07-21T05:39:37;7.20;;;2.92;;
58470;SDS011;44258;51.288;12.068;2022-07-21T05:42:03;6.18;;;2.72;;
58470;SDS011;44258;51.288;12.068;2022-07-21T05:44:30;6.40;;;3.08;;
58470;SDS011;44258;51.288;12.068;2022-07-21T05:46:56;7.15;;;3.15;;
58470;SDS011;44258;51.288;12.068;2022-07-21T05:49:23;6.82;;;3.03;;
58470;SDS011;44258;51.288;12.068;2022-07-21T05:51:49;7.47;;;3.45;;
58470;SDS011;44258;51.288;12.068;2022-07-21T05:54:17;7.70;;;2.67;;
58470;SDS011;44258;51.288;12.068;2022-07-21T05:56:44;8.43;;;3.08;;
58470;SDS011;44258;51.288;12.068;2022-07-21T05:59:10;7.25;;;3.00;;
58470;SDS011;44258;51.288;12.068;2022-07-21T06:01:37;6.68;;;2.95;;
58470;SDS011;44258;51.288;12.068;2022-07-21T06:04:04;7.00;;;2.50;;
58470;SDS011;44258;51.288;12.068;2022-07-21T06:06:30;8.18;;;3.10;;
58470;SDS011;44258;51.288;12.068;2022-07-21T06:08:57;7.57;;;3.40;;
58470;SDS011;44258;51.288;12.068;2022-07-21T06:11:26;5.93;;;2.70;;
58470;SDS011;44258;51.288;12.068;2022-07-21T06:13:52;7.03;;;3.20;;
58470;SDS011;44258;51.288;12.068;2022-07-21T06:16:19;6.28;;;2.75;;
58470;SDS011;44258;51.288;12.068;2022-07-21T06:18:46;7.45;;;3.05;;
58470;SDS011;44258;51.288;12.068;2022-07-21T06:21:12;5.85;;;2.78;;
58470;SDS011;44258;51.288;12.068;2022-07-21T06:23:39;6.25;;;2.90;;
58470;SDS011;44258;51.288;12.068;2022-07-21T06:26:05;6.32;;;3.05;;
58470;SDS011;44258;51.288;12.068;2022-07-21T06:28:33;6.25;;;3.05;;
58470;SDS011;44258;51.288;12.068;2022-07-21T06:31:00;6.10;;;3.08;;
58470;SDS011;44258;51.288;12.068;2022-07-21T06:33:26;5.38;;;2.85;;
58470;SDS011;44258;51.288;12.068;2022-07-21T06:35:54;6.47;;;3.15;;
58470;SDS011;44258;51.288;12.068;2022-07-21T06:38:21;7.15;;;2.95;;
58470;SDS011;44258;51.288;12.068;2022-07-21T06:40:47;7.55;;;3.00;;
58470;SDS011;44258;51.288;12.068;2022-07-21T06:43:14;7.82;;;3.35;;
58470;SDS011;44258;51.288;12.068;2022-07-21T06:45:42;6.60;;;3.00;;
58470;SDS011;44258;51.288;12.068;2022-07-21T06:48:09;7.05;;;3.15;;
58470;SDS011;44258;51.288;12.068;2022-07-21T06:50:36;7.93;;;3.10;;
58470;SDS011;44258;51.288;12.068;2022-07-21T06:53:03;7.00;;;3.22;;
58470;SDS011;44258;51.288;12.068;2022-07-21T06:55:30;7.70;;;3.05;;
58470;SDS011;44258;51.288;12.068;2022-07-21T06:57:57;6.72;;;3.20;;
58470;SDS011;44258;51.288;12.068;2022-07-21T07:00:24;7.88;;;3.53;;
58470;SDS011;44258;51.288;12.068;2022-07-21T07:02:52;9.52;;;3.28;;
58470;SDS011;44258;51.288;12.068;2022-07-21T07:05:19;7.43;;;3.30;;
58470;SDS011;44258;51.288;12.068;2022-07-21T07:07:45;7.93;;;3.10;;
58470;SDS011;44258;51.288;12.068;2022-07-21T07:10:13;8.13;;;3.30;;
58470;SDS011;44258;51.288;12.068;2022-07-21T07:12:39;6.15;;;2.80;;
58470;SDS011;44258;51.288;12.068;2022-07-21T07:15:06;6.13;;;3.25;;
58470;SDS011;44258;51.288;12.068;2022-07-21T07:17:33;8.25;;;3.10;;
58470;SDS011;44258;51.288;12.068;2022-07-21T07:20:01;6.85;;;3.42;;
58470;SDS011;44258;51.288;12.068;2022-07-21T07:22:31;7.35;;;3.50;;
58470;SDS011;44258;51.288;12.068;2022-07-21T07:24:57;8.27;;;3.53;;
58470;SDS011;44258;51.288;12.068;2022-07-21T07:27:24;9.52;;;3.85;;
58470;SDS011;44258;51.288;12.068;2022-07-21T07:29:51;8.98;;;3.85;;
58470;SDS011;44258;51.288;12.068;2022-07-21T07:32:18;7.38;;;3.45;;
58470;SDS011;44258;51.288;12.068;2022-07-21T07:34:45;9.02;;;3.63;;
58470;SDS011;44258;51.288;12.068;2022-07-21T07:37:14;7.43;;;3.70;;
58470;SDS011;44258;51.288;12.068;2022-07-21T07:39:40;7.07;;;3.40;;
58470;SDS011;44258;51.288;12.068;2022-07-21T07:42:08;8.70;;;3.63;;
58470;SDS011;44258;51.288;12.068;2022-07-21T07:44:35;7.70;;;3.88;;
58470;SDS011;44258;51.288;12.068;2022-07-21T07:47:02;9.85;;;3.78;;
58470;SDS011;44258;51.288;12.068;2022-07-21T07:49:29;8.65;;;3.90;;
58470;SDS011;44258;51.288;12.068;2022-07-21T07:51:56;8.30;;;4.05;;
58470;SDS011;44258;51.288;12.068;2022-07-21T07:54:25;8.80;;;3.83;;
58470;SDS011;44258;51.288;12.068;2022-07-21T07:56:51;9.45;;;3.95;;
58470;SDS011;44258;51.288;12.068;2022-07-21T07:59:18;8.85;;;4.10;;
58470;SDS011;44258;51.288;12.068;2022-07-21T08:01:45;7.63;;;3.92;;
58470;SDS011;44258;51.288;12.068;2022-07-21T08:04:12;8.35;;;4.00;;
58470;SDS011;44258;51.288;12.068;2022-07-21T08:06:40;9.20;;;4.15;;
58470;SDS011;44258;51.288;12.068;2022-07-21T08:09:07;8.02;;;3.72;;
58470;SDS011;44258;51.288;12.068;2022-07-21T08:11:35;7.35;;;3.75;;
58470;SDS011;44258;51.288;12.068;2022-07-21T08:14:02;9.20;;;4.18;;
58470;SDS011;44258;51.288;12.068;2022-07-21T08:16:32;9.60;;;4.47;;
58470;SDS011;44258;51.288;12.068;2022-07-21T08:19:03;10.52;;;4.32;;
58470;SDS011;44258;51.288;12.068;2022-07-21T08:21:29;8.23;;;4.40;;
58470;SDS011;44258;51.288;12.068;2022-07-21T08:24:04;11.38;;;4.72;;
58470;SDS011;44258;51.288;12.068;2022-07-21T08:26:33;11.88;;;4.50;;
58470;SDS011;44258;51.288;12.068;2022-07-21T08:29:01;9.98;;;4.25;;
58470;SDS011;44258;51.288;12.068;2022-07-21T08:31:31;8.15;;;4.18;;
58470;SDS011;44258;51.288;12.068;2022-07-21T08:33:58;9.95;;;4.30;;
58470;SDS011;44258;51.288;12.068;2022-07-21T08:36:27;8.40;;;4.07;;
58470;SDS011;44258;51.288;12.068;2022-07-21T08:38:56;8.70;;;4.00;;
58470;SDS011;44258;51.288;12.068;2022-07-21T08:41:23;10.18;;;4.78;;
58470;SDS011;44258;51.288;12.068;2022-07-21T08:43:55;9.73;;;4.95;;
58470;SDS011;44258;51.288;12.068;2022-07-21T08:46:24;9.38;;;4.60;;
58470;SDS011;44258;51.288;12.068;2022-07-21T08:48:50;9.27;;;4.53;;
58470;SDS011;44258;51.288;12.068;2022-07-21T08:51:17;11.02;;;4.82;;
58470;SDS011;44258;51.288;12.068;2022-07-21T08:53:44;11.68;;;5.15;;
58470;SDS011;44258;51.288;12.068;2022-07-21T08:56:10;9.73;;;4.68;;
58470;SDS011;44258;51.288;12.068;2022-07-21T08:58:37;9.65;;;4.75;;
58470;SDS011;44258;51.288;12.068;2022-07-21T09:01:04;8.98;;;4.55;;
58470;SDS011;44258;51.288;12.068;2022-07-21T09:03:32;10.75;;;4.93;;
58470;SDS011;44258;51.288;12.068;2022-07-21T09:06:00;9.68;;;4.90;;
58470;SDS011;44258;51.288;12.068;2022-07-21T09:08:30;11.15;;;5.07;;
58470;SDS011;44258;51.288;12.068;2022-07-21T09:11:11;10.70;;;5.25;;
58470;SDS011;44258;51.288;12.068;2022-07-21T09:13:40;10.68;;;5.18;;
58470;SDS011;44258;51.288;12.068;2022-07-21T09:16:08;10.00;;;5.28;;
58470;SDS011;44258;51.288;12.068;2022-07-21T09:18:43;11.43;;;5.22;;
58470;SDS011;44258;51.288;12.068;2022-07-21T09:21:17;10.40;;;5.35;;
58470;SDS011;44258;51.288;12.068;2022-07-21T09:23:44;10.35;;;5.22;;
58470;SDS011;44258;51.288;12.068;2022-07-21T09:26:12;10.85;;;5.88;;
58470;SDS011;44258;51.288;12.068;2022-07-21T09:28:40;10.13;;;5.57;;
58470;SDS011;44258;51.288;12.068;2022-07-21T09:31:09;12.13;;;6.25;;
58470;SDS011;44258;51.288;12.068;2022-07-21T09:33:38;10.73;;;5.60;;
58470;SDS011;44258;51.288;12.068;2022-07-21T09:36:08;10.90;;;5.57;;
58470;SDS011;44258;51.288;12.068;2022-07-21T09:38:37;12.55;;;6.65;;
58470;SDS011;44258;51.288;12.068;2022-07-21T09:41:07;10.57;;;5.75;;
58470;SDS011;44258;51.288;12.068;2022-07-21T09:43:37;9.13;;;5.18;;
58470;SDS011;44258;51.288;12.068;2022-07-21T09:46:11;11.68;;;5.65;;
58470;SDS011;44258;51.288;12.068;2022-07-21T09:48:40;12.40;;;6.15;;
58470;SDS011;44258;51.288;12.068;2022-07-21T09:51:20;12.00;;;6.15;;
58470;SDS011;44258;51.288;12.068;2022-07-21T09:53:49;12.85;;;6.70;;
58470;SDS011;44258;51.288;12.068;2022-07-21T09:56:18;12.43;;;6.10;;
58470;SDS011;44258;51.288;12.068;2022-07-21T09:58:45;11.98;;;6.60;;
58470;SDS011;44258;51.288;12.068;2022-07-21T10:01:12;12.05;;;6.07;;
58470;SDS011;44258;51.288;12.068;2022-07-21T10:03:39;11.27;;;5.60;;
58470;SDS011;44258;51.288;12.068;2022-07-21T10:06:08;11.40;;;6.00;;
58470;SDS011;44258;51.288;12.068;2022-07-21T10:08:37;11.85;;;6.18;;
58470;SDS011;44258;51.288;12.068;2022-07-21T10:11:04;9.93;;;5.53;;
58470;SDS011;44258;51.288;12.068;2022-07-21T10:13:31;9.85;;;5.47;;
58470;SDS011;44258;51.288;12.068;2022-07-21T10:15:58;10.73;;;5.78;;
58470;SDS011;44258;51.288;12.068;2022-07-21T10:18:27;10.40;;;5.18;;
58470;SDS011;44258;51.288;12.068;2022-07-21T10:20:58;10.13;;;5.40;;
58470;SDS011;44258;51.288;12.068;2022-07-21T10:23:29;10.60;;;5.35;;
58470;SDS011;44258;51.288;12.068;2022-07-21T10:26:04;12.20;;;5.80;;
58470;SDS011;44258;51.288;12.068;2022-07-21T10:28:32;13.13;;;6.10;;
58470;SDS011;44258;51.288;12.068;2022-07-21T10:31:00;11.80;;;5.78;;
58470;SDS011;44258;51.288;12.068;2022-07-21T10:33:55;10.00;;;5.18;;
58470;SDS011;44258;51.288;12.068;2022-07-21T10:36:40;10.38;;;5.72;;
58470;SDS011;44258;51.288;12.068;2022-07-21T10:39:22;10.30;;;5.85;;
58470;SDS011;44258;51.288;12.068;2022-07-21T10:41:52;12.30;;;5.72;;
58470;SDS011;44258;51.288;12.068;2022-07-21T10:44:37;11.05;;;5.00;;
58470;SDS011;44258;51.288;12.068;2022-07-21T10:47:05;9.75;;;5.43;;
58470;SDS011;44258;51.288;12.068;2022-07-21T10:49:44;11.15;;;5.78;;
58470;SDS011;44258;51.288;12.068;2022-07-21T10:55:17;11.13;;;5.47;;
58470;SDS011;44258;51.288;12.068;2022-07-21T11:00:50;12.02;;;6.30;;
58470;SDS011;44258;51.288;12.068;2022-07-21T11:03:20;11.57;;;6.28;;
58470;SDS011;44258;51.288;12.068;2022-07-21T11:08:45;11.88;;;6.60;;
58470;SDS011;44258;51.288;12.068;2022-07-21T11:11:14;11.23;;;6.05;;
58470;SDS011;44258;51.288;12.068;2022-07-21T11:14:00;14.70;;;6.60;;
58470;SDS011;44258;51.288;12.068;2022-07-21T11:19:36;13.57;;;7.30;;
58470;SDS011;44258;51.288;12.068;2022-07-21T11:22:06;11.38;;;6.50;;
58470;SDS011;44258;51.288;12.068;2022-07-21T11:24:36;10.85;;;6.53;;
58470;SDS011;44258;51.288;12.068;2022-07-21T11:27:04;10.80;;;6.20;;
58470;SDS011;44258;51.288;12.068;2022-07-21T11:29:35;11.98;;;7.13;;
58470;SDS011;44258;51.288;12.068;2022-07-21T11:32:03;12.65;;;7.05;;
58470;SDS011;44258;51.288;12.068;2022-07-21T11:34:40;12.02;;;7.13;;
58470;SDS011;44258;51.288;12.068;2022-07-21T11:37:10;12.40;;;6.35;;
58470;SDS011;44258;51.288;12.068;2022-07-21T11:39:38;10.10;;;5.60;;
58470;SDS011;44258;51.288;12.068;2022-07-21T11:42:06;12.50;;;6.72;;
58470;SDS011;44258;51.288;12.068;2022-07-21T11:44:35;12.48;;;7.90;;
58470;SDS011;44258;51.288;12.068;2022-07-21T11:47:02;12.52;;;7.13;;
58470;SDS011;44258;51.288;12.068;2022-07-21T11:49:30;11.52;;;6.43;;
58470;SDS011;44258;51.288;12.068;2022-07-21T11:51:59;11.90;;;6.72;;
58470;SDS011;44258;51.288;12.068;2022-07-21T11:54:29;12.00;;;7.30;;
58470;SDS011;44258;51.288;12.068;2022-07-21T11:56:58;12.45;;;6.40;;
58470;SDS011;44258;51.288;12.068;2022-07-21T11:59:26;12.50;;;7.10;;
58470;SDS011;44258;51.288;12.068;2022-07-21T12:01:56;11.60;;;6.57;;
58470;SDS011;44258;51.288;12.068;2022-07-21T12:04:33;13.80;;;6.63;;
58470;SDS011;44258;51.288;12.068;2022-07-21T12:07:15;14.65;;;6.57;;
58470;SDS011;44258;51.288;12.068;2022-07-21T12:09:45;11.48;;;6.30;;
58470;SDS011;44258;51.288;12.068;2022-07-21T12:12:14;10.13;;;6.07;;
58470;SDS011;44258;51.288;12.068;2022-07-21T12:14:42;12.73;;;7.22;;
58470;SDS011;44258;51.288;12.068;2022-07-21T12:17:16;12.50;;;6.95;;
58470;SDS011;44258;51.288;12.068;2022-07-21T12:19:57;11.82;;;6.75;;
58470;SDS011;44258;51.288;12.068;2022-07-21T12:22:31;11.80;;;6.22;;
58470;SDS011;44258;51.288;12.068;2022-07-21T12:25:03;11.57;;;7.00;;
58470;SDS011;44258;51.288;12.068;2022-07-21T12:27:33;11.95;;;6.85;;
58470;SDS011;44258;51.288;12.068;2022-07-21T12:30:00;11.10;;;6.22;;
58470;SDS011;44258;51.288;12.068;2022-07-21T12:32:39;11.93;;;6.65;;
58470;SDS011;44258;51.288;12.068;2022-07-21T12:35:22;12.50;;;6.57;;
58470;SDS011;44258;51.288;12.068;2022-07-21T12:37:51;13.57;;;6.72;;
58470;SDS011;44258;51.288;12.068;2022-07-21T12:40:24;11.75;;;6.43;;
58470;SDS011;44258;51.288;12.068;2022-07-21T12:42:51;13.75;;;7.10;;
58470;SDS011;44258;51.288;12.068;2022-07-21T12:45:29;10.15;;;6.15;;
58470;SDS011;44258;51.288;12.068;2022-07-21T12:48:07;11.15;;;6.50;;
58470;SDS011;44258;51.288;12.068;2022-07-21T12:50:35;11.60;;;6.82;;
58470;SDS011;44258;51.288;12.068;2022-07-21T12:53:04;12.60;;;6.45;;
58470;SDS011;44258;51.288;12.068;2022-07-21T12:55:31;11.82;;;6.65;;
58470;SDS011;44258;51.288;12.068;2022-07-21T12:57:57;11.90;;;6.88;;
58470;SDS011;44258;51.288;12.068;2022-07-21T13:00:24;11.23;;;6.28;;
58470;SDS011;44258;51.288;12.068;2022-07-21T13:02:51;12.18;;;6.30;;
58470;SDS011;44258;51.288;12.068;2022-07-21T13:05:21;10.45;;;5.88;;
58470;SDS011;44258;51.288;12.068;2022-07-21T13:07:49;10.25;;;5.25;;
58470;SDS011;44258;51.288;12.068;2022-07-21T13:10:16;10.70;;;5.50;;
58470;SDS011;44258;51.288;12.068;2022-07-21T13:12:44;9.10;;;4.82;;
58470;SDS011;44258;51.288;12.068;2022-07-21T13:15:12;9.48;;;4.82;;
58470;SDS011;44258;51.288;12.068;2022-07-21T13:17:38;8.95;;;4.57;;
58470;SDS011;44258;51.288;12.068;2022-07-21T13:20:06;7.72;;;3.70;;
58470;SDS011;44258;51.288;12.068;2022-07-21T13:22:35;7.97;;;3.90;;
58470;SDS011;44258;51.288;12.068;2022-07-21T13:25:02;10.70;;;4.88;;
58470;SDS011;44258;51.288;12.068;2022-07-21T13:27:29;10.55;;;4.82;;
58470;SDS011;44258;51.288;12.068;2022-07-21T13:29:57;8.40;;;4.78;;
58470;SDS011;44258;51.288;12.068;2022-07-21T13:32:23;7.55;;;4.10;;
58470;SDS011;44258;51.288;12.068;2022-07-21T13:34:50;7.55;;;4.20;;
58470;SDS011;44258;51.288;12.068;2022-07-21T13:37:17;7.43;;;3.85;;
58470;SDS011;44258;51.288;12.068;2022-07-21T13:39:45;8.55;;;4.55;;
58470;SDS011;44258;51.288;12.068;2022-07-21T13:42:11;8.35;;;4.25;;
58470;SDS011;44258;51.288;12.068;2022-07-21T13:44:38;8.52;;;3.80;;
58470;SDS011;44258;51.288;12.068;2022-07-21T13:47:05;9.20;;;4.20;;
58470;SDS011;44258;51.288;12.068;2022-07-21T13:49:32;6.78;;;3.90;;
58470;SDS011;44258;51.288;12.068;2022-07-21T13:51:59;7.05;;;3.67;;
58470;SDS011;44258;51.288;12.068;2022-07-21T13:54:26;9.45;;;3.67;;
58470;SDS011;44258;51.288;12.068;2022-07-21T13:56:54;7.90;;;4.10;;
58470;SDS011;44258;51.288;12.068;2022-07-21T13:59:24;7.72;;;4.43;;
58470;SDS011;44258;51.288;12.068;2022-07-21T14:01:50;9.10;;;4.18;;
58470;SDS011;44258;51.288;12.068;2022-07-21T14:04:18;7.40;;;4.10;;
58470;SDS011;44258;51.288;12.068;2022-07-21T14:06:45;8.45;;;3.45;;
58470;SDS011;44258;51.288;12.068;2022-07-21T14:09:14;6.68;;;3.67;;
58470;SDS011;44258;51.288;12.068;2022-07-21T14:11:41;6.07;;;3.05;;
58470;SDS011;44258;51.288;12.068;2022-07-21T14:14:10;4.28;;;2.50;;
58470;SDS011;44258;51.288;12.068;2022-07-21T14:16:42;6.28;;;2.70;;
58470;SDS011;44258;51.288;12.068;2022-07-21T14:19:09;5.30;;;2.55;;
58470;SDS011;44258;51.288;12.068;2022-07-21T14:21:36;4.90;;;2.50;;
58470;SDS011;44258;51.288;12.068;2022-07-21T14:24:03;5.10;;;2.30;;
58470;SDS011;44258;51.288;12.068;2022-07-21T14:26:48;6.07;;;2.40;;
58470;SDS011;44258;51.288;12.068;2022-07-21T14:29:16;4.03;;;2.53;;
58470;SDS011;44258;51.288;12.068;2022-07-21T14:31:43;5.93;;;2.60;;
58470;SDS011;44258;51.288;12.068;2022-07-21T14:34:09;5.97;;;2.45;;
58470;SDS011;44258;51.288;12.068;2022-07-21T14:36:36;5.07;;;2.70;;
58470;SDS011;44258;51.288;12.068;2022-07-21T14:39:03;5.45;;;2.50;;
58470;SDS011;44258;51.288;12.068;2022-07-21T14:41:30;6.35;;;2.70;;
58470;SDS011;44258;51.288;12.068;2022-07-21T14:43:56;4.50;;;2.58;;
58470;SDS011;44258;51.288;12.068;2022-07-21T14:46:24;6.75;;;2.63;;